sensor_id;sensor_type;location;lat;lon;timestamp;pressure;altitude;pressure_sealevel;temperature;humidity
23953;BME280;12163;49.316;6.092;2023-04-20T00:01:10;99555.66;;;7.28;51.05
23953;BME280;12163;49.316;6.092;2023-04-20T00:03:36;99551.91;;;7.24;51.30
23953;BME280;12163;49.316;6.092;2023-04-20T00:06:04;99547.88;;;7.21;50.49
23953;BME280;12163;49.316;6.092;2023-04-20T00:08:30;99549.22;;;7.24;50.69
23953;BME280;12163;49.316;6.092;2023-04-20T00:10:57;99543.31;;;7.22;50.56
23953;BME280;12163;49.316;6.092;2023-04-20T00:13:24;99539.03;;;7.26;49.77
23953;BME280;12163;49.316;6.092;2023-04-20T00:15:51;99541.19;;;7.29;49.89
23953;BME280;12163;49.316;6.092;2023-04-20T00:18:18;99535.28;;;7.32;49.64
23953;BME280;12163;49.316;6.092;2023-04-20T00:20:44;99525.13;;;7.34;49.39
23953;BME280;12163;49.316;6.092;2023-04-20T00:23:11;99526.19;;;7.33;49.72
23953;BME280;12163;49.316;6.092;2023-04-20T00:25:37;99519.44;;;7.30;49.19
23953;BME280;12163;49.316;6.092;2023-04-20T00:28:04;99516.50;;;7.32;48.93
23953;BME280;12163;49.316;6.092;2023-04-20T00:30:31;99507.41;;;7.33;49.07
23953;BME280;12163;49.316;6.092;2023-04-20T00:32:58;99500.38;;;7.32;48.92
23953;BME280;12163;49.316;6.092;2023-04-20T00:35:24;99504.41;;;7.29;48.98
23953;BME280;12163;49.316;6.092;2023-04-20T00:37:51;99498.22;;;7.24;48.88
23953;BME280;12163;49.316;6.092;2023-04-20T00:40:17;99500.38;;;7.22;49.59
23953;BME280;12163;49.316;6.092;2023-04-20T00:42:44;99497.16;;;7.20;49.29
23953;BME280;12163;49.316;6.092;2023-04-20T00:45:11;99488.56;;;7.18;49.24
23953;BME280;12163;49.316;6.092;2023-04-20T00:47:37;99485.88;;;7.13;49.69
23953;BME280;12163;49.316;6.092;2023-04-20T00:50:05;99481.28;;;7.08;49.36
23953;BME280;12163;49.316;6.092;2023-04-20T00:52:33;99470.00;;;7.06;49.34
23953;BME280;12163;49.316;6.092;2023-04-20T00:55:00;99476.69;;;7.04;49.67
23953;BME280;12163;49.316;6.092;2023-04-20T00:57:28;99471.34;;;7.04;49.87
23953;BME280;12163;49.316;6.092;2023-04-20T00:59:56;99464.34;;;7.03;50.13
23953;BME280;12163;49.316;6.092;2023-04-20T01:02:23;99468.09;;;7.02;49.40
23953;BME280;12163;49.316;6.092;2023-04-20T01:04:49;99471.63;;;7.02;49.60
23953;BME280;12163;49.316;6.092;2023-04-20T01:07:16;99457.38;;;7.02;49.32
23953;BME280;12163;49.316;6.092;2023-04-20T01:09:43;99466.78;;;6.99;49.35
23953;BME280;12163;49.316;6.092;2023-04-20T01:12:09;99462.47;;;6.98;49.23
23953;BME280;12163;49.316;6.092;2023-04-20T01:14:36;99458.22;;;7.07;48.41
23953;BME280;12163;49.316;6.092;2023-04-20T01:17:03;99454.75;;;7.12;48.58
23953;BME280;12163;49.316;6.092;2023-04-20T01:19:32;99445.88;;;7.11;48.45
23953;BME280;12163;49.316;6.092;2023-04-20T01:21:58;99444.25;;;7.10;48.15
23953;BME280;12163;49.316;6.092;2023-04-20T01:24:25;99446.69;;;7.12;48.22
23953;BME280;12163;49.316;6.092;2023-04-20T01:26:53;99432.72;;;7.10;48.58
23953;BME280;12163;49.316;6.092;2023-04-20T01:29:19;99436.75;;;7.12;48.04
23953;BME280;12163;49.316;6.092;2023-04-20T01:31:46;99432.22;;;7.13;48.07
23953;BME280;12163;49.316;6.092;2023-04-20T01:34:13;99432.22;;;7.13;47.69
23953;BME280;12163;49.316;6.092;2023-04-20T01:36:40;99423.63;;;7.11;48.06
23953;BME280;12163;49.316;6.092;2023-04-20T01:39:07;99426.25;;;7.06;47.96
23953;BME280;12163;49.316;6.092;2023-04-20T01:41:34;99421.97;;;7.00;48.42
23953;BME280;12163;49.316;6.092;2023-04-20T01:44:01;99420.88;;;6.96;48.72
23953;BME280;12163;49.316;6.092;2023-04-20T01:46:27;99413.09;;;6.94;47.68
23953;BME280;12163;49.316;6.092;2023-04-20T01:48:54;99416.31;;;6.96;48.36
23953;BME280;12163;49.316;6.092;2023-04-20T01:51:21;99412.84;;;6.96;48.20
23953;BME280;12163;49.316;6.092;2023-04-20T01:53:47;99406.41;;;6.92;47.78
23953;BME280;12163;49.316;6.092;2023-04-20T01:56:14;99407.72;;;6.89;47.92
23953;BME280;12163;49.316;6.092;2023-04-20T01:58:41;99406.38;;;6.87;48.50
23953;BME280;12163;49.316;6.092;2023-04-20T02:01:08;99396.69;;;6.81;48.34
23953;BME280;12163;49.316;6.092;2023-04-20T02:03:34;99399.38;;;6.76;48.68
23953;BME280;12163;49.316;6.092;2023-04-20T02:06:01;99396.69;;;6.76;48.57
23953;BME280;12163;49.316;6.092;2023-04-20T02:08:28;99395.34;;;6.73;48.75
23953;BME280;12163;49.316;6.092;2023-04-20T02:10:54;99399.06;;;6.67;49.03
23953;BME280;12163;49.316;6.092;2023-04-20T02:13:21;99403.91;;;6.65;48.78
23953;BME280;12163;49.316;6.092;2023-04-20T02:15:47;99401.47;;;6.64;48.64
23953;BME280;12163;49.316;6.092;2023-04-20T02:18:14;99396.63;;;6.61;48.92
23953;BME280;12163;49.316;6.092;2023-04-20T02:20:42;99397.69;;;6.55;48.99
23953;BME280;12163;49.316;6.092;2023-04-20T02:23:09;99397.41;;;6.52;48.76
23953;BME280;12163;49.316;6.092;2023-04-20T02:25:36;99393.94;;;6.51;48.78
23953;BME280;12163;49.316;6.092;2023-04-20T02:28:03;99390.16;;;6.47;49.16
23953;BME280;12163;49.316;6.092;2023-04-20T02:30:30;99385.34;;;6.44;49.43
23953;BME280;12163;49.316;6.092;2023-04-20T02:32:58;99387.97;;;6.39;49.89
23953;BME280;12163;49.316;6.092;2023-04-20T02:35:25;99393.31;;;6.34;49.79
23953;BME280;12163;49.316;6.092;2023-04-20T02:37:52;99393.59;;;6.33;49.84
23953;BME280;12163;49.316;6.092;2023-04-20T02:40:18;99391.97;;;6.32;49.72
23953;BME280;12163;49.316;6.092;2023-04-20T02:42:45;99390.09;;;6.27;49.97
23953;BME280;12163;49.316;6.092;2023-04-20T02:45:12;99382.03;;;6.22;50.24
23953;BME280;12163;49.316;6.092;2023-04-20T02:47:38;99377.44;;;6.18;50.41
23953;BME280;12163;49.316;6.092;2023-04-20T02:50:05;99379.28;;;6.17;50.14
23953;BME280;12163;49.316;6.092;2023-04-20T02:52:32;99381.44;;;6.15;49.98
23953;BME280;12163;49.316;6.092;2023-04-20T02:54:59;99376.06;;;6.15;50.51
23953;BME280;12163;49.316;6.092;2023-04-20T02:57:26;99382.25;;;6.16;50.24
23953;BME280;12163;49.316;6.092;2023-04-20T02:59:53;99372.84;;;6.13;51.04
23953;BME280;12163;49.316;6.092;2023-04-20T03:02:19;99378.50;;;6.12;50.65
23953;BME280;12163;49.316;6.092;2023-04-20T03:04:46;99373.91;;;6.12;50.19
23953;BME280;12163;49.316;6.092;2023-04-20T03:07:13;99374.69;;;6.08;50.97
23953;BME280;12163;49.316;6.092;2023-04-20T03:09:42;99374.97;;;6.06;50.61
23953;BME280;12163;49.316;6.092;2023-04-20T03:12:08;99377.13;;;6.09;50.35
23953;BME280;12163;49.316;6.092;2023-04-20T03:14:35;99371.78;;;6.09;50.75
23953;BME280;12163;49.316;6.092;2023-04-20T03:17:01;99373.91;;;6.07;50.37
23953;BME280;12163;49.316;6.092;2023-04-20T03:19:28;99377.66;;;6.06;51.41
23953;BME280;12163;49.316;6.092;2023-04-20T03:21:54;99383.53;;;6.03;51.14
23953;BME280;12163;49.316;6.092;2023-04-20T03:24:21;99378.69;;;6.00;51.41
23953;BME280;12163;49.316;6.092;2023-04-20T03:26:49;99370.91;;;5.99;51.41
23953;BME280;12163;49.316;6.092;2023-04-20T03:29:16;99368.22;;;5.99;51.27
23953;BME280;12163;49.316;6.092;2023-04-20T03:31:43;99377.06;;;5.99;51.62
23953;BME280;12163;49.316;6.092;2023-04-20T03:34:09;99373.84;;;5.97;50.98
23953;BME280;12163;49.316;6.092;2023-04-20T03:36:36;99367.69;;;5.97;51.25
23953;BME280;12163;49.316;6.092;2023-04-20T03:39:03;99366.06;;;5.96;51.72
23953;BME280;12163;49.316;6.092;2023-04-20T03:41:30;99363.41;;;5.96;51.46
23953;BME280;12163;49.316;6.092;2023-04-20T03:43:57;99351.63;;;5.97;51.57
23953;BME280;12163;49.316;6.092;2023-04-20T03:46:23;99350.03;;;6.01;51.19
23953;BME280;12163;49.316;6.092;2023-04-20T03:48:50;99348.97;;;6.02;51.85
23953;BME280;12163;49.316;6.092;2023-04-20T03:51:17;99349.78;;;6.02;51.34
23953;BME280;12163;49.316;6.092;2023-04-20T03:53:44;99347.66;;;6.09;50.83
23953;BME280;12163;49.316;6.092;2023-04-20T03:56:10;99349.56;;;6.14;51.08
23953;BME280;12163;49.316;6.092;2023-04-20T03:58:37;99350.91;;;6.16;51.03
23953;BME280;12163;49.316;6.092;2023-04-20T04:01:04;99344.75;;;6.16;51.29
23953;BME280;12163;49.316;6.092;2023-04-20T04:03:35;99344.47;;;6.12;50.95
23953;BME280;12163;49.316;6.092;2023-04-20T04:06:02;99341.22;;;6.10;51.34
23953;BME280;12163;49.316;6.092;2023-04-20T04:08:29;99343.91;;;6.05;51.50
23953;BME280;12163;49.316;6.092;2023-04-20T04:10:58;99337.72;;;6.05;51.85
23953;BME280;12163;49.316;6.092;2023-04-20T04:13:25;99340.69;;;6.03;51.72
23953;BME280;12163;49.316;6.092;2023-04-20T04:15:52;99332.88;;;6.02;51.78
23953;BME280;12163;49.316;6.092;2023-04-20T04:18:20;99337.44;;;6.01;51.72
23953;BME280;12163;49.316;6.092;2023-04-20T04:20:47;99333.66;;;5.97;52.11
23953;BME280;12163;49.316;6.092;2023-04-20T04:23:13;99330.97;;;5.97;51.69
23953;BME280;12163;49.316;6.092;2023-04-20T04:25:40;99330.50;;;6.00;51.42
23953;BME280;12163;49.316;6.092;2023-04-20T04:28:07;99334.50;;;6.03;51.56
23953;BME280;12163;49.316;6.092;2023-04-20T04:30:34;99331.28;;;6.01;51.41
23953;BME280;12163;49.316;6.092;2023-04-20T04:33:01;99338.78;;;5.99;52.01
23953;BME280;12163;49.316;6.092;2023-04-20T04:35:30;99340.09;;;5.96;52.07
23953;BME280;12163;49.316;6.092;2023-04-20T04:37:58;99328.28;;;5.92;52.34
23953;BME280;12163;49.316;6.092;2023-04-20T04:40:26;99333.63;;;5.92;51.69
23953;BME280;12163;49.316;6.092;2023-04-20T04:42:52;99337.94;;;5.93;51.69
23953;BME280;12163;49.316;6.092;2023-04-20T04:45:19;99333.41;;;5.99;51.73
23953;BME280;12163;49.316;6.092;2023-04-20T04:47:46;99331.03;;;6.02;51.58
23953;BME280;12163;49.316;6.092;2023-04-20T04:50:12;99331.03;;;6.07;51.14
23953;BME280;12163;49.316;6.092;2023-04-20T04:52:39;99325.72;;;6.17;55.03
23953;BME280;12163;49.316;6.092;2023-04-20T04:55:06;99312.22;;;6.59;56.38
23953;BME280;12163;49.316;6.092;2023-04-20T04:57:34;99316.28;;;7.21;57.32
23953;BME280;12163;49.316;6.092;2023-04-20T05:00:01;99302.78;;;7.81;55.46
23953;BME280;12163;49.316;6.092;2023-04-20T05:02:29;99301.56;;;8.27;53.53
23953;BME280;12163;49.316;6.092;2023-04-20T05:04:56;99298.97;;;8.60;52.24
23953;BME280;12163;49.316;6.092;2023-04-20T05:07:23;99297.97;;;8.89;51.20
23953;BME280;12163;49.316;6.092;2023-04-20T05:09:50;99298.28;;;9.16;48.74
23953;BME280;12163;49.316;6.092;2023-04-20T05:12:16;99292.97;;;9.06;48.61
23953;BME280;12163;49.316;6.092;2023-04-20T05:14:44;99296.06;;;8.90;47.72
23953;BME280;12163;49.316;6.092;2023-04-20T05:17:11;99298.38;;;8.68;47.85
23953;BME280;12163;49.316;6.092;2023-04-20T05:19:37;99301.25;;;8.38;47.86
23953;BME280;12163;49.316;6.092;2023-04-20T05:22:04;99300.50;;;8.13;47.75
23953;BME280;12163;49.316;6.092;2023-04-20T05:24:30;99301.66;;;7.92;48.39
23953;BME280;12163;49.316;6.092;2023-04-20T05:26:57;99303.84;;;7.75;48.54
23953;BME280;12163;49.316;6.092;2023-04-20T05:29:24;99300.91;;;7.71;48.37
23953;BME280;12163;49.316;6.092;2023-04-20T05:31:50;99307.66;;;7.59;48.05
23953;BME280;12163;49.316;6.092;2023-04-20T05:34:17;99298.53;;;7.50;48.70
23953;BME280;12163;49.316;6.092;2023-04-20T05:36:43;99300.69;;;7.48;49.07
23953;BME280;12163;49.316;6.092;2023-04-20T05:39:12;99301.22;;;7.45;49.40
23953;BME280;12163;49.316;6.092;2023-04-20T05:41:38;99296.69;;;7.45;49.19
23953;BME280;12163;49.316;6.092;2023-04-20T05:44:05;99293.72;;;7.47;48.81
23953;BME280;12163;49.316;6.092;2023-04-20T05:46:31;99300.97;;;7.51;48.64
23953;BME280;12163;49.316;6.092;2023-04-20T05:48:58;99299.06;;;7.52;48.42
23953;BME280;12163;49.316;6.092;2023-04-20T05:51:24;99294.78;;;7.51;48.19
23953;BME280;12163;49.316;6.092;2023-04-20T05:53:54;99293.72;;;7.47;48.12
23953;BME280;12163;49.316;6.092;2023-04-20T05:56:20;99301.75;;;7.52;48.46
23953;BME280;12163;49.316;6.092;2023-04-20T05:58:47;99302.03;;;7.55;48.55
23953;BME280;12163;49.316;6.092;2023-04-20T06:01:14;99294.22;;;7.64;48.56
23953;BME280;12163;49.316;6.092;2023-04-20T06:03:41;99293.13;;;7.70;48.38
23953;BME280;12163;49.316;6.092;2023-04-20T06:06:08;99295.53;;;7.76;48.50
23953;BME280;12163;49.316;6.092;2023-04-20T06:08:34;99295.25;;;7.83;48.22
23953;BME280;12163;49.316;6.092;2023-04-20T06:11:01;99296.03;;;7.83;47.65
23953;BME280;12163;49.316;6.092;2023-04-20T06:13:28;99297.13;;;7.77;47.63
23953;BME280;12163;49.316;6.092;2023-04-20T06:15:54;99296.63;;;7.75;47.76
23953;BME280;12163;49.316;6.092;2023-04-20T06:18:21;99303.34;;;7.78;48.16
23953;BME280;12163;49.316;6.092;2023-04-20T06:20:48;99299.28;;;7.75;47.33
23953;BME280;12163;49.316;6.092;2023-04-20T06:23:14;99288.25;;;7.77;48.06
23953;BME280;12163;49.316;6.092;2023-04-20T06:25:41;99297.94;;;7.83;48.46
23953;BME280;12163;49.316;6.092;2023-04-20T06:28:08;99298.44;;;7.90;47.61
23953;BME280;12163;49.316;6.092;2023-04-20T06:30:34;99293.06;;;7.90;47.70
23953;BME280;12163;49.316;6.092;2023-04-20T06:33:02;99291.47;;;7.89;47.55
23953;BME280;12163;49.316;6.092;2023-04-20T06:35:29;99290.94;;;7.87;47.36
23953;BME280;12163;49.316;6.092;2023-04-20T06:37:55;99288.81;;;7.84;48.14
23953;BME280;12163;49.316;6.092;2023-04-20T06:40:26;99290.41;;;7.85;48.07
23953;BME280;12163;49.316;6.092;2023-04-20T06:42:53;99293.59;;;7.92;48.10
23953;BME280;12163;49.316;6.092;2023-04-20T06:45:19;99291.97;;;7.96;48.14
23953;BME280;12163;49.316;6.092;2023-04-20T06:47:46;99287.41;;;7.96;48.03
23953;BME280;12163;49.316;6.092;2023-04-20T06:50:13;99291.41;;;7.99;48.11
23953;BME280;12163;49.316;6.092;2023-04-20T06:52:40;99290.91;;;8.02;48.19
23953;BME280;12163;49.316;6.092;2023-04-20T06:55:07;99290.91;;;8.02;47.96
23953;BME280;12163;49.316;6.092;2023-04-20T06:57:33;99296.78;;;7.99;47.91
23953;BME280;12163;49.316;6.092;2023-04-20T07:00:01;99290.88;;;7.97;48.88
23953;BME280;12163;49.316;6.092;2023-04-20T07:02:28;99290.34;;;7.95;48.08
23953;BME280;12163;49.316;6.092;2023-04-20T07:05:01;99287.69;;;7.90;48.69
23953;BME280;12163;49.316;6.092;2023-04-20T07:07:28;99278.03;;;7.89;48.38
23953;BME280;12163;49.316;6.092;2023-04-20T07:09:54;99279.91;;;7.93;48.34
23953;BME280;12163;49.316;6.092;2023-04-20T07:12:21;99276.38;;;7.98;48.81
23953;BME280;12163;49.316;6.092;2023-04-20T07:14:47;99280.38;;;8.05;48.48
23953;BME280;12163;49.316;6.092;2023-04-20T07:17:14;99277.13;;;8.13;48.77
23953;BME280;12163;49.316;6.092;2023-04-20T07:19:40;99283.31;;;8.24;48.50
23953;BME280;12163;49.316;6.092;2023-04-20T07:22:07;99278.44;;;8.26;48.31
23953;BME280;12163;49.316;6.092;2023-04-20T07:24:34;99278.41;;;8.31;48.77
23953;BME280;12163;49.316;6.092;2023-04-20T07:27:00;99279.97;;;8.41;48.69
23953;BME280;12163;49.316;6.092;2023-04-20T07:29:27;99281.53;;;8.52;48.59
23953;BME280;12163;49.316;6.092;2023-04-20T07:31:54;99273.69;;;8.61;48.04
23953;BME280;12163;49.316;6.092;2023-04-20T07:34:21;99274.72;;;8.65;48.06
23953;BME280;12163;49.316;6.092;2023-04-20T07:36:48;99280.88;;;8.70;48.65
23953;BME280;12163;49.316;6.092;2023-04-20T07:39:14;99265.50;;;8.76;48.40
23953;BME280;12163;49.316;6.092;2023-04-20T07:41:41;99265.75;;;8.79;48.32
23953;BME280;12163;49.316;6.092;2023-04-20T07:44:09;99276.75;;;8.83;48.43
23953;BME280;12163;49.316;6.092;2023-04-20T07:46:36;99268.94;;;8.81;48.67
23953;BME280;12163;49.316;6.092;2023-04-20T07:49:03;99266.78;;;8.83;49.18
23953;BME280;12163;49.316;6.092;2023-04-20T07:51:30;99272.66;;;8.90;48.76
23953;BME280;12163;49.316;6.092;2023-04-20T07:53:58;99266.72;;;8.93;48.88
23953;BME280;12163;49.316;6.092;2023-04-20T07:56:25;99269.09;;;9.00;49.22
23953;BME280;12163;49.316;6.092;2023-04-20T07:58:52;99263.34;;;9.11;49.24
23953;BME280;12163;49.316;6.092;2023-04-20T08:01:22;99253.56;;;9.20;49.24
23953;BME280;12163;49.316;6.092;2023-04-20T08:03:51;99257.75;;;9.31;49.04
23953;BME280;12163;49.316;6.092;2023-04-20T08:06:18;99266.09;;;9.35;48.94
23953;BME280;12163;49.316;6.092;2023-04-20T08:08:44;99260.19;;;9.33;49.08
23953;BME280;12163;49.316;6.092;2023-04-20T08:11:11;99254.34;;;9.26;49.22
23953;BME280;12163;49.316;6.092;2023-04-20T08:13:40;99256.78;;;9.22;48.97
23953;BME280;12163;49.316;6.092;2023-04-20T08:16:06;99247.16;;;9.16;49.28
23953;BME280;12163;49.316;6.092;2023-04-20T08:18:33;99246.63;;;9.14;49.43
23953;BME280;12163;49.316;6.092;2023-04-20T08:20:59;99248.25;;;9.15;49.95
23953;BME280;12163;49.316;6.092;2023-04-20T08:23:26;99245.44;;;9.25;50.07
23953;BME280;12163;49.316;6.092;2023-04-20T08:25:53;99247.00;;;9.31;49.50
23953;BME280;12163;49.316;6.092;2023-04-20T08:28:23;99240.50;;;9.37;49.65
23953;BME280;12163;49.316;6.092;2023-04-20T08:30:54;99239.59;;;9.47;49.75
23953;BME280;12163;49.316;6.092;2023-04-20T08:33:21;99243.81;;;9.53;49.98
23953;BME280;12163;49.316;6.092;2023-04-20T08:35:51;99235.22;;;9.51;49.82
23953;BME280;12163;49.316;6.092;2023-04-20T08:38:18;99234.13;;;9.52;49.95
23953;BME280;12163;49.316;6.092;2023-04-20T08:40:58;99240.94;;;9.44;50.21
23953;BME280;12163;49.316;6.092;2023-04-20T08:43:25;99248.94;;;9.26;51.11
23953;BME280;12163;49.316;6.092;2023-04-20T08:45:56;99240.22;;;9.10;51.56
23953;BME280;12163;49.316;6.092;2023-04-20T08:48:24;99246.69;;;9.04;52.25
23953;BME280;12163;49.316;6.092;2023-04-20T08:50:50;99251.75;;;9.11;52.42
23953;BME280;12163;49.316;6.092;2023-04-20T08:53:17;99249.84;;;9.16;52.03
23953;BME280;12163;49.316;6.092;2023-04-20T08:55:44;99240.38;;;9.19;52.23
23953;BME280;12163;49.316;6.092;2023-04-20T08:58:11;99245.50;;;9.20;52.50
23953;BME280;12163;49.316;6.092;2023-04-20T09:00:47;99245.25;;;9.17;52.75
23953;BME280;12163;49.316;6.092;2023-04-20T09:03:14;99246.28;;;9.21;53.04
23953;BME280;12163;49.316;6.092;2023-04-20T09:05:43;99250.31;;;9.23;52.89
23953;BME280;12163;49.316;6.092;2023-04-20T09:08:10;99242.28;;;9.18;53.61
23953;BME280;12163;49.316;6.092;2023-04-20T09:10:42;99243.88;;;9.19;54.07
23953;BME280;12163;49.316;6.092;2023-04-20T09:13:21;99239.91;;;9.12;54.26
23953;BME280;12163;49.316;6.092;2023-04-20T09:15:48;99234.81;;;9.10;55.33
23953;BME280;12163;49.316;6.092;2023-04-20T09:18:14;99244.00;;;9.04;55.78
23953;BME280;12163;49.316;6.092;2023-04-20T09:20:41;99245.09;;;9.03;55.94
23953;BME280;12163;49.316;6.092;2023-04-20T09:23:13;99254.78;;;9.04;56.41
23953;BME280;12163;49.316;6.092;2023-04-20T09:25:40;99245.09;;;9.03;57.19
23953;BME280;12163;49.316;6.092;2023-04-20T09:28:08;99239.13;;;9.11;57.18
23953;BME280;12163;49.316;6.092;2023-04-20T09:30:37;99244.47;;;9.16;57.62
23953;BME280;12163;49.316;6.092;2023-04-20T09:33:04;99247.78;;;9.03;57.18
23953;BME280;12163;49.316;6.092;2023-04-20T09:35:32;99240.91;;;8.87;58.61
23953;BME280;12163;49.316;6.092;2023-04-20T09:37:59;99250.16;;;8.76;59.03
23953;BME280;12163;49.316;6.092;2023-04-20T09:40:26;99254.72;;;8.76;59.82
23953;BME280;12163;49.316;6.092;2023-04-20T09:42:52;99243.75;;;8.72;59.62
23953;BME280;12163;49.316;6.092;2023-04-20T09:45:20;99244.31;;;8.69;60.35
23953;BME280;12163;49.316;6.092;2023-04-20T09:47:47;99255.53;;;8.76;60.85
23953;BME280;12163;49.316;6.092;2023-04-20T09:50:15;99245.25;;;8.83;60.21
23953;BME280;12163;49.316;6.092;2023-04-20T09:52:55;99257.59;;;8.89;60.79
23953;BME280;12163;49.316;6.092;2023-04-20T09:55:22;99247.72;;;8.80;61.15
23953;BME280;12163;49.316;6.092;2023-04-20T09:57:50;99251.78;;;8.77;61.71
23953;BME280;12163;49.316;6.092;2023-04-20T10:00:18;99255.50;;;8.81;62.14
23953;BME280;12163;49.316;6.092;2023-04-20T10:02:46;99262.22;;;8.84;61.75
23953;BME280;12163;49.316;6.092;2023-04-20T10:05:13;99254.94;;;8.84;61.71
23953;BME280;12163;49.316;6.092;2023-04-20T10:07:42;99259.22;;;8.85;61.85
23953;BME280;12163;49.316;6.092;2023-04-20T10:10:11;99253.84;;;8.85;61.94
23953;BME280;12163;49.316;6.092;2023-04-20T10:12:52;99243.94;;;8.81;61.70
23953;BME280;12163;49.316;6.092;2023-04-20T10:15:20;99244.69;;;8.86;62.21
23953;BME280;12163;49.316;6.092;2023-04-20T10:17:47;99244.16;;;8.89;61.92
23953;BME280;12163;49.316;6.092;2023-04-20T10:20:22;99242.22;;;8.95;62.50
23953;BME280;12163;49.316;6.092;2023-04-20T10:22:53;99239.16;;;9.06;62.55
23953;BME280;12163;49.316;6.092;2023-04-20T10:25:31;99235.03;;;9.14;63.22
23953;BME280;12163;49.316;6.092;2023-04-20T10:27:59;99231.38;;;9.05;63.67
23953;BME280;12163;49.316;6.092;2023-04-20T10:30:28;99231.97;;;8.97;64.10
23953;BME280;12163;49.316;6.092;2023-04-20T10:33:09;99231.81;;;8.83;63.77
23953;BME280;12163;49.316;6.092;2023-04-20T10:35:47;99234.06;;;8.71;64.49
23953;BME280;12163;49.316;6.092;2023-04-20T10:38:26;99227.34;;;8.69;64.65
23953;BME280;12163;49.316;6.092;2023-04-20T10:40:53;99230.28;;;8.72;64.66
23953;BME280;12163;49.316;6.092;2023-04-20T10:43:21;99230.97;;;8.88;65.56
23953;BME280;12163;49.316;6.092;2023-04-20T10:45:48;99230.56;;;9.04;64.58
23953;BME280;12163;49.316;6.092;2023-04-20T10:48:15;99226.91;;;9.19;63.87
23953;BME280;12163;49.316;6.092;2023-04-20T10:50:44;99227.88;;;9.33;63.48
23953;BME280;12163;49.316;6.092;2023-04-20T10:53:21;99216.78;;;9.39;62.26
23953;BME280;12163;49.316;6.092;2023-04-20T10:55:58;99213.63;;;9.56;62.00
23953;BME280;12163;49.316;6.092;2023-04-20T10:58:25;99214.03;;;9.68;62.88
23953;BME280;12163;49.316;6.092;2023-04-20T11:01:00;99215.69;;;9.87;63.35
23953;BME280;12163;49.316;6.092;2023-04-20T11:03:28;99218.16;;;10.07;62.58
23953;BME280;12163;49.316;6.092;2023-04-20T11:05:59;99210.13;;;10.02;61.73
23953;BME280;12163;49.316;6.092;2023-04-20T11:08:39;99202.78;;;9.84;62.17
23953;BME280;12163;49.316;6.092;2023-04-20T11:11:25;99210.53;;;9.67;62.39
23953;BME280;12163;49.316;6.092;2023-04-20T11:14:08;99203.44;;;9.53;63.04
23953;BME280;12163;49.316;6.092;2023-04-20T11:16:36;99201.06;;;9.46;64.16
23953;BME280;12163;49.316;6.092;2023-04-20T11:19:46;99201.31;;;9.50;64.35
23953;BME280;12163;49.316;6.092;2023-04-20T11:22:20;99189.72;;;9.49;63.24
23953;BME280;12163;49.316;6.092;2023-04-20T11:24:47;99190.75;;;9.53;63.59
23953;BME280;12163;49.316;6.092;2023-04-20T11:27:20;99180.44;;;9.60;63.68
23953;BME280;12163;49.316;6.092;2023-04-20T11:29:55;99173.91;;;9.66;63.52
23953;BME280;12163;49.316;6.092;2023-04-20T11:32:24;99167.00;;;9.79;63.19
23953;BME280;12163;49.316;6.092;2023-04-20T11:35:01;99160.03;;;9.96;63.36
23953;BME280;12163;49.316;6.092;2023-04-20T11:37:46;99153.00;;;10.18;62.44
23953;BME280;12163;49.316;6.092;2023-04-20T11:40:13;99153.06;;;10.32;62.86
23953;BME280;12163;49.316;6.092;2023-04-20T11:42:40;99137.19;;;10.30;63.45
23953;BME280;12163;49.316;6.092;2023-04-20T11:45:07;99134.13;;;10.37;62.37
23953;BME280;12163;49.316;6.092;2023-04-20T11:47:34;99125.78;;;10.52;62.76
23953;BME280;12163;49.316;6.092;2023-04-20T11:50:00;99121.72;;;10.54;60.64
23953;BME280;12163;49.316;6.092;2023-04-20T11:52:27;99127.47;;;10.48;60.35
23953;BME280;12163;49.316;6.092;2023-04-20T11:54:53;99117.50;;;10.62;61.69
23953;BME280;12163;49.316;6.092;2023-04-20T11:57:20;99116.94;;;10.65;61.24
23953;BME280;12163;49.316;6.092;2023-04-20T11:59:49;99119.56;;;10.70;61.50
23953;BME280;12163;49.316;6.092;2023-04-20T12:02:15;99117.06;;;10.73;60.69
23953;BME280;12163;49.316;6.092;2023-04-20T12:04:42;99120.16;;;10.67;61.17
23953;BME280;12163;49.316;6.092;2023-04-20T12:07:09;99116.94;;;10.65;60.03
23953;BME280;12163;49.316;6.092;2023-04-20T12:09:36;99115.91;;;10.61;59.50
23953;BME280;12163;49.316;6.092;2023-04-20T12:12:04;99113.72;;;10.63;59.90
23953;BME280;12163;49.316;6.092;2023-04-20T12:14:33;99106.97;;;10.79;59.98
23953;BME280;12163;49.316;6.092;2023-04-20T12:17:00;99114.47;;;10.82;59.93
23953;BME280;12163;49.316;6.092;2023-04-20T12:19:27;99110.19;;;10.81;60.23
23953;BME280;12163;49.316;6.092;2023-04-20T12:21:54;99112.38;;;10.79;59.62
23953;BME280;12163;49.316;6.092;2023-04-20T12:24:21;99109.78;;;10.74;59.25
23953;BME280;12163;49.316;6.092;2023-04-20T12:26:48;99106.13;;;10.65;58.90
23953;BME280;12163;49.316;6.092;2023-04-20T12:29:14;99109.94;;;10.64;59.29
23953;BME280;12163;49.316;6.092;2023-04-20T12:31:42;99106.56;;;10.72;59.35
23953;BME280;12163;49.316;6.092;2023-04-20T12:34:08;99102.19;;;10.89;59.08
23953;BME280;12163;49.316;6.092;2023-04-20T12:36:35;99093.44;;;11.11;58.89
23953;BME280;12163;49.316;6.092;2023-04-20T12:39:02;99099.03;;;11.28;58.51
23953;BME280;12163;49.316;6.092;2023-04-20T12:41:29;99099.44;;;11.35;58.29
23953;BME280;12163;49.316;6.092;2023-04-20T12:43:56;99091.22;;;11.40;56.62
23953;BME280;12163;49.316;6.092;2023-04-20T12:46:22;99086.91;;;11.52;56.39
23953;BME280;12163;49.316;6.092;2023-04-20T12:48:49;99093.31;;;11.70;56.25
23953;BME280;12163;49.316;6.092;2023-04-20T12:51:16;99085.00;;;11.79;55.55
23953;BME280;12163;49.316;6.092;2023-04-20T12:53:43;99087.59;;;11.84;54.46
23953;BME280;12163;49.316;6.092;2023-04-20T12:56:09;99076.41;;;11.77;54.36
23953;BME280;12163;49.316;6.092;2023-04-20T12:58:36;99079.88;;;11.78;53.91
23953;BME280;12163;49.316;6.092;2023-04-20T13:01:02;99076.13;;;12.01;54.79
23953;BME280;12163;49.316;6.092;2023-04-20T13:03:29;99068.59;;;12.33;54.33
23953;BME280;12163;49.316;6.092;2023-04-20T13:05:57;99064.50;;;12.66;52.53
23953;BME280;12163;49.316;6.092;2023-04-20T13:08:24;99068.78;;;12.89;51.81
23953;BME280;12163;49.316;6.092;2023-04-20T13:10:51;99069.88;;;12.88;50.28
23953;BME280;12163;49.316;6.092;2023-04-20T13:13:17;99074.50;;;12.88;49.49